Zdjęcia wschodów, zachodów Słońca, chmur, błyskawic

Czyli kiedy i gdzie można sie spodziewać czystego nieba....
Awatar użytkownika
misiek153
Donator
Posty: 461
Rejestracja: 27 maja 2012, 23:38
Lokalizacja: Kraków

21 stycznia 2019, 14:08

Ciekawe zjawisko :-)
CANON EOS 80D + GSO 10" i SYNTA 8", TAMRON AF 18-270 Di II VC PZD, TAMRON 100-400 F/4.5-6.3 Di VC USD, OLYMPUS 12x50
Awatar użytkownika
spinka
Posty: 191
Rejestracja: 30 maja 2017, 13:07
Lokalizacja: Poznań

22 stycznia 2019, 15:45

2019.01.22 Zjawiska Atmosferyczne z dziś:

Słup świetlny:
Halo wokół Słońca wraz z górnym łukiem stycznym małego pierścienia:
Na filmach wydaje mi się, że oprócz małego pierścienia 22° widać również zarysy dużego pierścienia 46°.

Tu tylko moment z halo:


Tu całe przedpołudnie:
"Słup świetlny" od 0:40
"Halo" od 1:45
Momentami widać też "Wieniec" wokół Słońca.


Edit: Wg METAR w czasie wystąpienia Słupu Świetlnego występowały opadu śniegu ziarnistego i marznąca mgła,
w przypadku halo już tylko marznąca mgła.

Kod: Zaznacz cały

METAR EPPO 220500Z 16004KT 2200 BR NSC M07/M08 Q1016 R10/190095 =
METAR EPPO 220530Z 14004KT 2300 BR NSC M07/M08 Q1016 R10/190095 =
METAR EPPO 220600Z 16004KT 2200 BR NSC M07/M08 Q1016 R10/190095 =
METAR EPPO 220630Z 16005KT 1300 R28/P2000 BR SCT002 M07/M08 Q1016     R10/190095 =
METAR EPPO 220700Z 17007KT 1200 R28/1800 BR BKN002 M06/M07 Q1016     R10/190095 =
METAR EPPO 220730Z 16006KT 1600 BR SCT001 BKN003 M06/M07 Q1016     R10/190095 =
METAR EPPO 220800Z 17007KT 1300 R28/1600D -SN BR BKN002 M06/M07 Q1016     R10/190095 =
METAR EPPO 220830Z 13005KT 1000 R28/1100D BR SCT001 OVC002 M06/M07     Q1016 R10/190095 =
METAR EPPO 220900Z 14007KT 0900 R28/1100N FZFG OVC001 M06/M07 Q1016     R10/190095 =
METAR EPPO 220930Z 17007KT 0900 R28/1100N -SG FZFG OVC001 M06/M07     Q1016 R10/190095 =
METAR EPPO 221000Z 15006KT 0900 R28/1200U FZFG OVC001 M06/M07 Q1015     R10/190095 =
METAR EPPO 221030Z 13006KT 1200 R28/1500 BR OVC001 M05/M06 Q1015     R10/190095 =
METAR EPPO 221100Z 17006KT 1200 R28/1500 BR OVC002 M05/M06 Q1015     R10/190095 =
METAR EPPO 221130Z 12006KT 1300 R28/1500 BR OVC003 M05/M06 Q1015     R10/190095 =
METAR EPPO 221200Z 12006KT 2000 BR OVC002 M05/M06 Q1014 R10/190095 =
METAR EPPO 221230Z 15006KT 1600 BR OVC003 M05/M06 Q1014 R10/190095 =
Awatar użytkownika
spinka
Posty: 191
Rejestracja: 30 maja 2017, 13:07
Lokalizacja: Poznań

31 stycznia 2019, 18:43

2019.01.31 Zachód Słońca, na zakończenie dnia z próbami złapania tranzytu.
Awatar użytkownika
K_M
Donator
Posty: 481
Rejestracja: 10 maja 2016, 18:15
Obserwuję: wszystko w promieniu do 50km
Lokalizacja: Grebocin

19 lutego 2019, 21:02

dzisiejsza superpłenia
Obrazeksuperpelnia.19.02.2019 by Kamil, on Flickr
ObrazekPlaneplotter: f1 Nikon D7200, GSO 10" TV PoweMate 2" 2X, Tamron 150-600 G2
Sensiss
Donator
Posty: 261
Rejestracja: 01 marca 2015, 12:16
Obserwuję: T270, T727, L735, L23
Lokalizacja: Nowe Miasto Lubawskie

19 lutego 2019, 21:21

Hej. To ja dorzucę koniunkcję z dzisiejszego poranka. Wczorajszy układ był ładniejszy, ale budzik nie dał rady :-P.

Po lewej Wenus, na górze gwiazda Albaldah, na dole Saturn. 19.02.19, 6:07.

Obrazek


I zachodzący Księżyc kilkadziesiąt minut później.

Obrazek
Nikon D7200, Sony NEX3, teleskop 114/900.
https://www.flickr.com/photos/130505573@N08/
Awatar użytkownika
spinka
Posty: 191
Rejestracja: 30 maja 2017, 13:07
Lokalizacja: Poznań

23 lutego 2019, 19:07

Tak dzisiaj rozwinęła się smuga za CCA846:
Awatar użytkownika
K_M
Donator
Posty: 481
Rejestracja: 10 maja 2016, 18:15
Obserwuję: wszystko w promieniu do 50km
Lokalizacja: Grebocin

23 lutego 2019, 19:14

zabezpiecz jakoś to zdjęcie bo zaraz je podłapią zwolennicy chemtrailsów :lol:
ObrazekPlaneplotter: f1 Nikon D7200, GSO 10" TV PoweMate 2" 2X, Tamron 150-600 G2
Awatar użytkownika
spinka
Posty: 191
Rejestracja: 30 maja 2017, 13:07
Lokalizacja: Poznań

05 marca 2019, 16:13

K_M pisze:
23 lutego 2019, 19:14
zabezpiecz jakoś to zdjęcie bo zaraz je podłapią zwolennicy chemtrailsów :lol:
Z produkcji rozpraszaczy chemtrailsów chyba można nieźle żyć, niech se biorą. :-P

2019.03.05 Mammatus:
Sensiss
Donator
Posty: 261
Rejestracja: 01 marca 2015, 12:16
Obserwuję: T270, T727, L735, L23
Lokalizacja: Nowe Miasto Lubawskie

09 marca 2019, 19:41

Cześć.

Pierwsza w tym roku :-). Około 19:30 przetoczyła się na południe od Poznania. Pięknie strzelało.

Obrazek



Obrazek


Pozdrawiam.
Nikon D7200, Sony NEX3, teleskop 114/900.
https://www.flickr.com/photos/130505573@N08/
Awatar użytkownika
vader
Administrator
Posty: 2268
Rejestracja: 13 stycznia 2008, 11:33
Obserwuję: niebo :)
Lokalizacja: Kraków
Kontakt:

09 marca 2019, 21:02

Monitoruję od rana pogodę i bardzo zazdroszczę!
N 10" 'Simon II' + SCT 5", EOS 70D, 12x50, 8.5x32, 2x53
Intek AR-109, PlanePlotter: mo i vo
Obrazek
Awatar użytkownika
spinka
Posty: 191
Rejestracja: 30 maja 2017, 13:07
Lokalizacja: Poznań

27 marca 2019, 03:24

Miała być zorza G2, a był straszny kapiszon już nawet pomijając pogodę :roll: na pocieszenie wschód Słońca pomalował trochę chmury:
Sniekr
Posty: 20
Rejestracja: 09 grudnia 2018, 03:04
Lokalizacja: Lublin

10 kwietnia 2019, 02:26

Muszę przyznać że zachód słońca w poniedziałek był bardzo fotogeniczny.

Obrazek

Obrazek

Niebo w dzień również było miłe dla oka.

Obrazek
ODPOWIEDZ